DW4240 Weather Reports


time (UTC)temp
C
wind
direction
speed
KPH
gust
KPH
rain 1hr
cm
rain 24hr
cm
rain mn
cm
humidity
%
barometer
mb
20191014124551 22 323 0.0 0.0 0.00 0.00 0.00 73 1010.8
20191014123016 21 322 0.0 0.0 0.00 0.00 0.00 73 1011.0
20191014121510 21 321 0.0 0.0 0.00 0.00 0.00 72 1011.3
20191014120037 21 318 0.0 0.0 0.00 0.00 0.00 73 1011.5
20191014114512 20 310 0.0 0.0 0.00 0.00 0.00 74 1011.7
20191014113014 21 304 0.0 0.0 0.00 0.00 0.00 70 1011.9
20191014111508 20 304 0.0 0.0 0.00 0.00 0.00 71 1012.1
20191014110038 20 304 0.0 0.0 0.00 0.00 0.00 71 1012.4
20191014104509 19 304 0.0 0.0 0.00 0.00 0.00 73 1012.4
20191014103030 18 299 0.0 0.0 0.00 0.00 0.00 72 1012.7
20191014101504 19 299 0.0 0.0 0.00 0.00 0.00 73 1012.7
20191014100004 18 298 0.0 0.0 0.00 0.00 0.00 74 1012.5
20191014094515 19 298 0.0 0.0 0.00 0.00 0.00 74 1012.6
20191014093001 19 298 0.0 0.0 0.00 0.00 0.00 73 1012.4
20191014090158 20 298 0.0 0.0 0.00 0.00 0.00 72 1012.2
20191014084701 19 298 0.0 0.0 0.00 0.00 0.00 72 1012.5
20191014083107 18 298 0.0 0.0 0.00 0.00 0.00 73 1012.3
20191014081632 18 298 0.0 0.0 0.00 0.00 0.00 76 1012.5
20191014080149 17 298 1.6 0.0 0.00 0.00 0.00 81 1012.5
20191014074614 16 298 0.0 0.0 0.00 0.00 0.00 86 1012.4
20191014073145 15 298 0.0 0.0 0.00 0.00 0.00 88 1012.4
20191014071704 15 298 0.0 0.0 0.00 0.00 0.00 89 1012.2
20191014070130 15 298 0.0 0.0 0.00 0.00 0.00 89 1012.2
20191014064631 15 298 0.0 0.0 0.00 0.00 0.00 89 1012.0
20191014063139 15 298 0.0 0.0 0.00 0.00 0.00 89 1011.9
20191014061638 15 298 0.0 0.0 0.00 0.00 0.00 88 1011.7
20191014060121 15 298 0.0 0.0 0.00 0.00 0.00 88 1011.7
20191014054611 16 298 0.0 0.0 0.00 0.00 0.00 87 1011.4
20191014053119 16 298 0.0 0.0 0.00 0.00 0.00 87 1011.3
20191014051636 16 298 0.0 0.0 0.00 0.00 0.00 87 1011.2
20191014050111 16 298 1.6 0.0 0.00 0.00 0.00 88 1011.1
20191014044532 17 297 3.2 0.0 0.00 0.00 0.00 88 1011.0
20191014043057 -17 271 0.0 0.0 0.00 0.00 0.00 1011.1
20191014041525 -17 267 0.0 0.0 0.00 0.00 0.00 1011.1
20191014040038 -17 267 0.0 0.0 0.00 0.00 0.00 1011.0
20191014034538 -17 267 0.0 0.0 0.00 0.00 0.00 1010.9
20191014033032 -17 267 0.0 0.0 0.00 0.00 0.00 1010.6
20191014030222 -17 267 1.6 0.0 0.00 0.00 0.00 1010.4
20191014024652 -17 215 1.6 0.0 0.00 0.00 0.00 1010.3
20191014023204 -17 211 0.0 0.0 0.00 0.00 0.00 1010.0
20191014021712 -17 207 0.0 0.0 0.00 0.00 0.00 1009.6
20191014020129 18 205 3.2 0.0 0.00 0.00 0.00 79 1009.5
20191014014637 18 205 4.8 0.0 0.00 0.00 0.00 78 1009.3
20191014013144 19 205 8.0 0.0 0.00 0.00 0.00 77 1009.0
20191014011601 19 215 6.4 0.0 0.00 0.00 0.00 76 1009.1
20191014010332 20 218 6.4 0.0 0.00 0.00 0.00 75 1009.1
20191014004722 20 210 9.7 0.0 0.00 0.00 0.00 73 1008.9
20191014003044 21 207 9.7 0.0 0.00 0.00 0.00 71 1008.8
20191014001546 21 198 14.5 0.0 0.00 0.00 0.00 70 1008.7
20191014000056 21 208 12.9 0.0 0.00 0.00 0.00 69 1008.6
20191013234610 21 259 12.9 0.0 0.00 0.00 0.00 69 1008.4
20191013233027 21 196 11.3 0.0 0.00 0.00 0.00 69 1008.2
20191013231536 21 185 12.9 0.0 0.00 0.00 0.00 68 1007.8
20191013230008 21 248 12.9 0.0 0.00 0.00 0.00 69 1007.7
20191013224529 21 234 8.0 0.0 0.00 0.00 0.00 69 1007.7
20191013223005 21 206 8.0 0.0 0.00 0.00 0.00 69 1007.7
20191013221503 21 223 8.0 0.0 0.00 0.00 0.00 69 1007.7
20191013220255 21 198 9.7 0.0 0.00 0.00 0.00 68 1007.6
20191013214635 22 213 12.9 0.0 0.00 0.00 0.00 68 1007.5
20191013213351 22 217 14.5 0.0 0.00 0.00 0.00 67 1007.4
20191013211705 22 190 14.5 0.0 0.00 0.00 0.00 67 1007.1
20191013210149 22 228 17.7 0.0 0.00 0.00 0.00 68 1006.9
20191013204647 22 206 17.7 0.0 0.00 0.00 0.00 68 1007.0
20191013203211 22 197 16.1 0.0 0.00 0.00 0.00 68 1007.0
20191013201723 22 209 16.1 0.0 0.00 0.00 0.00 68 1006.8
20191013200235 22 213 16.1 0.0 0.00 0.00 0.00 68 1006.8
20191013194716 22 198 12.9 0.0 0.00 0.00 0.00 68 1006.7
20191013193216 22 209 12.9 0.0 0.00 0.00 0.00 68 1007.0
20191013191800 22 224 12.9 0.0 0.00 0.00 0.00 68 1007.0
20191013190220 22 200 12.9 0.0 0.00 0.00 0.00 68 1006.8
20191013184656 22 200 14.5 0.0 0.00 0.00 0.00 67 1006.6
20191013183201 22 186 14.5 0.0 0.00 0.00 0.00 68 1006.4
20191013181624 22 188 14.5 0.0 0.00 0.00 0.00 68 1006.3
20191013180248 22 194 11.3 0.0 0.00 0.00 0.00 68 1006.2
20191013174709 22 211 9.7 0.0 0.00 0.00 0.00 69 1006.2
20191013173155 21 196 8.0 0.0 0.00 0.00 0.00 70 1006.3
20191013171826 21 206 6.4 0.0 0.00 0.00 0.00 70 1006.3
20191013170154 22 209 4.8 0.0 0.00 0.00 0.00 70 1006.4
20191013164709 22 184 3.2 0.0 0.00 0.00 0.00 69 1006.3
20191013163251 22 180 3.2 0.0 0.00 0.00 0.00 69 1006.5
20191013161649 -17 178 3.2 0.0 0.00 0.00 0.00 1006.4
20191013160145 -17 169 3.2 0.0 0.00 0.00 0.00 1006.4
20191013154654 -17 195 3.2 0.0 0.00 0.00 0.00 1006.4
20191013153118 24 205 3.2 0.0 0.00 0.00 0.00 62 1006.4
20191013151559 24 201 8.0 0.0 0.00 0.00 0.00 62 1006.4
20191013150122 24 198 6.4 0.0 0.00 0.00 0.00 64 1006.5
20191013144548 23 200 3.2 0.0 0.00 0.00 0.00 68 1006.5
20191013143041 22 198 6.4 0.0 0.00 0.00 0.00 71 1006.5
20191013141552 22 167 3.2 0.0 0.00 0.00 0.00 79 1006.6
20191013140052 22 190 0.0 0.0 0.00 0.00 0.00 78 1007.0
20191013134530 -17 190 1.6 0.0 0.00 0.00 0.00 1007.1
20191013133011 -17 190 1.6 0.0 0.00 0.00 0.00 1007.2
20191013131506 -17 202 1.6 0.0 0.00 0.00 0.00 1007.3
20191013130007 -17 215 1.6 0.0 0.00 0.00 0.00 1007.6